Time;durP1;ratioP1;P1;durP2;ratioP2;P2;SDS_P1;SDS_P2;PMS_P1;PMS_P2;Temp;Humidity;BMP_temperature;BMP_pressure;BME280_temperature;BME280_humidity;BME280_pressure;Samples;Min_cycle;Max_cycle;Signal;HPM_P1;HPM_P2
2022/11/03 00:01:57;;;;;;;15.10;5.15;;;;;;;19.46;50.42;98818.03;5280328;27;20106;-80
2022/11/03 00:04:24;;;;;;;10.13;4.18;;;;;;;19.46;50.01;98822.38;5299091;27;20497;-80
2022/11/03 00:06:53;;;;;;;13.40;5.80;;;;;;;19.08;50.85;98831.00;5299657;27;20653;-80
2022/11/03 00:09:21;;;;;;;11.93;4.97;;;;;;;19.68;49.89;98819.22;5262219;27;20138;-80
2022/11/03 00:11:49;;;;;;;9.52;3.97;;;;;;;19.69;49.51;98815.66;5298772;27;20110;-80
2022/11/03 00:14:17;;;;;;;9.85;3.10;;;;;;;19.43;49.93;98819.97;5279885;27;20065;-80
2022/11/03 00:16:44;;;;;;;8.18;3.05;;;;;;;19.39;49.11;98819.37;5299647;27;20407;-80
2022/11/03 00:19:13;;;;;;;8.82;3.00;;;;;;;19.16;49.79;98820.03;5299138;27;20057;-80
2022/11/03 00:21:40;;;;;;;10.57;3.50;;;;;;;19.58;48.40;98824.25;5299577;27;20313;-80
2022/11/03 00:24:07;;;;;;;14.27;3.92;;;;;;;19.41;48.75;98809.63;5299471;27;20076;-80
2022/11/03 00:26:35;;;;;;;8.73;3.15;;;;;;;18.62;51.06;98818.25;5299494;27;20122;-80
2022/11/03 00:29:07;;;;;;;12.13;3.22;;;;;;;18.57;51.53;98814.22;5299424;27;20057;-80
2022/11/03 00:31:36;;;;;;;9.38;3.47;;;;;;;18.67;51.41;98815.34;5279664;27;20041;-80
2022/11/03 00:34:04;;;;;;;11.18;3.15;;;;;;;18.87;50.41;98811.47;5299378;27;20057;-80
2022/11/03 00:36:34;;;;;;;10.27;3.33;;;;;;;18.63;50.82;98816.47;5299500;27;20057;-80
2022/11/03 00:39:02;;;;;;;7.72;3.10;;;;;;;18.78;50.68;98808.50;5298994;27;20420;-80
2022/11/03 00:41:29;;;;;;;13.10;4.25;;;;;;;19.68;48.14;98809.59;5299453;27;20064;-80
2022/11/03 00:43:56;;;;;;;11.20;4.20;;;;;;;19.69;47.77;98806.03;5299374;27;20113;-80
2022/11/03 00:46:24;;;;;;;13.23;4.70;;;;;;;19.13;49.54;98807.13;5299051;27;20057;-80
2022/11/03 00:48:51;;;;;;;11.20;4.00;;;;;;;19.07;49.81;98797.94;5299457;27;20049;-80
2022/11/03 00:51:20;;;;;;;13.73;4.20;;;;;;;18.71;50.60;98804.59;5279939;27;20336;-80
2022/11/03 00:53:51;;;;;;;9.27;3.55;;;;;;;18.74;50.52;98809.63;5298976;27;20476;-80
2022/11/03 00:56:21;;;;;;;10.32;3.65;;;;;;;18.62;50.62;98805.16;5299248;27;20109;-80
2022/11/03 00:59:07;;;;;;;10.25;3.87;;;;;;;18.54;50.81;98811.81;5299334;27;20067;-80
2022/11/03 01:01:51;;;;;;;10.55;3.62;;;;;;;18.42;51.09;98801.19;5299452;27;20493;-80
2022/11/03 01:07:04;;;;;;;9.25;3.50;;;;;;;18.58;50.90;98798.44;5299022;27;20063;-80
2022/11/03 01:09:37;;;;;;;8.80;3.30;;;;;;;18.54;50.91;98785.69;5299249;27;20542;-80
2022/11/03 01:12:08;;;;;;;8.73;3.42;;;;;;;18.85;50.20;98784.59;5299136;27;20042;-80
2022/11/03 01:14:40;;;;;;;10.05;3.75;;;;;;;19.38;48.72;98794.13;5279275;27;20061;-80
2022/11/03 01:17:09;;;;;;;13.40;4.72;;;;;;;19.87;47.40;98786.41;5280000;27;20114;-80
2022/11/03 01:19:36;;;;;;;11.48;4.35;;;;;;;19.30;48.65;98793.81;5299116;27;20067;-80
2022/11/03 01:22:03;;;;;;;15.35;5.12;;;;;;;19.24;49.10;98791.56;5298915;27;20098;-80
2022/11/03 01:24:36;;;;;;;11.90;4.70;;;;;;;19.21;49.14;98792.62;5299882;27;20074;-81
2022/11/03 01:27:03;;;;;;;13.70;5.62;;;;;;;18.97;49.78;98795.09;5300239;27;20061;-80
2022/11/03 01:29:30;;;;;;;16.58;6.65;;;;;;;18.28;51.32;98792.53;5299620;27;20064;-80
2022/11/03 01:31:57;;;;;;;13.32;6.03;;;;;;;17.97;52.70;98797.06;5299967;27;20106;-80
2022/11/03 01:34:24;;;;;;;15.85;6.85;;;;;;;17.71;53.76;98795.16;5299712;27;20065;-81
2022/11/03 01:36:51;;;;;;;16.50;7.35;;;;;;;18.89;50.66;98797.34;5300201;27;20106;-80
2022/11/03 01:39:18;;;;;;;16.92;5.90;;;;;;;18.12;52.89;98800.47;5300095;27;20061;-80
2022/11/03 01:41:50;;;;;;;15.35;5.87;;;;;;;18.57;52.08;98796.75;5299789;27;20053;-80
2022/11/03 01:44:16;;;;;;;15.77;6.75;;;;;;;18.97;50.54;98794.25;5300093;27;20062;-80
2022/11/03 01:46:54;;;;;;;16.58;6.72;;;;;;;18.51;51.76;98807.62;5300081;27;20109;-80
2022/11/03 01:49:31;;;;;;;16.25;6.70;;;;;;;18.48;51.95;98792.94;5280150;27;20053;-80
2022/11/03 01:52:10;;;;;;;13.73;6.35;;;;;;;18.66;51.33;98790.16;5300096;27;20394;-80
2022/11/03 01:54:38;;;;;;;18.98;6.37;;;;;;;18.72;51.27;98795.84;5262685;27;20069;-80
2022/11/03 01:57:09;;;;;;;17.98;7.05;;;;;;;17.75;54.40;98789.66;5280690;27;20061;-80
2022/11/03 01:59:37;;;;;;;17.62;7.20;;;;;;;17.91;54.56;98793.03;5300044;27;20056;-80
2022/11/03 02:02:04;;;;;;;21.62;7.93;;;;;;;18.33;53.36;98786.09;5300022;27;20060;-80
2022/11/03 02:04:32;;;;;;;17.60;7.60;;;;;;;18.76;51.80;98791.25;5299648;27;20068;-80
2022/11/03 02:07:21;;;;;;;15.65;6.72;;;;;;;18.04;54.16;98785.28;5280682;27;20068;-80
2022/11/03 02:09:48;;;;;;;14.43;5.78;;;;;;;17.60;55.58;98778.34;5299605;27;20057;-81
2022/11/03 02:12:16;;;;;;;13.07;5.35;;;;;;;16.29;59.82;98778.00;5299775;27;20057;-80
2022/11/03 02:14:57;;;;;;;10.07;3.65;;;;;;;17.38;56.74;98775.31;5299700;27;20122;-81
2022/11/03 02:17:27;;;;;;;10.88;5.15;;;;;;;18.69;51.88;98776.88;5280230;27;20336;-80
2022/11/03 02:19:58;;;;;;;12.90;5.28;;;;;;;18.33;52.65;98775.66;5299827;27;20067;-81
2022/11/03 02:22:45;;;;;;;12.70;6.07;;;;;;;18.36;52.64;98780.66;5300110;27;20041;-80
2022/11/03 02:25:29;;;;;;;16.58;6.72;;;;;;;18.93;50.58;98779.72;5299451;27;20061;-80
2022/11/03 02:27:57;;;;;;;11.93;4.68;;;;;;;18.94;50.57;98784.00;5300012;27;20426;-80
2022/11/03 02:30:29;;;;;;;9.65;3.58;;;;;;;18.69;51.02;98790.78;5280426;27;20053;-80
2022/11/03 02:33:12;;;;;;;9.15;3.58;;;;;;;18.05;52.42;98786.12;5299860;27;20086;-80
2022/11/03 02:35:51;;;;;;;7.07;2.55;;;;;;;16.95;56.02;98788.25;5280220;27;20076;-80
2022/11/03 02:38:19;;;;;;;5.53;2.20;;;;;;;16.85;56.01;98781.87;5299461;27;20057;-80
2022/11/03 02:40:51;;;;;;;8.45;2.50;;;;;;;16.48;57.52;98778.69;5280548;27;20053;-80
2022/11/03 02:43:19;;;;;;;6.70;2.30;;;;;;;16.17;58.04;98776.06;5299983;27;20045;-80
2022/11/03 02:45:47;;;;;;;8.25;2.78;;;;;;;16.45;57.89;98781.44;5279873;27;20072;-80
2022/11/03 02:48:15;;;;;;;7.75;2.78;;;;;;;16.23;58.82;98775.72;5280641;27;20065;-80
2022/11/03 02:50:41;;;;;;;7.53;2.70;;;;;;;16.41;58.48;98784.31;5299884;27;20053;-80
2022/11/03 02:53:12;;;;;;;6.90;2.55;;;;;;;16.20;59.32;98775.91;5299451;27;20352;-80
2022/11/03 02:55:51;;;;;;;6.87;2.37;;;;;;;16.49;59.05;98782.13;5299591;27;20061;-80
2022/11/03 02:58:41;;;;;;;6.03;2.40;;;;;;;17.43;55.37;98777.66;5280636;27;20158;-80
2022/11/03 03:01:16;;;;;;;9.65;2.50;;;;;;;17.53;54.39;98773.56;5280451;27;20064;-80
2022/11/03 03:03:56;;;;;;;6.62;2.62;;;;;;;16.98;55.79;98771.56;5280578;27;20316;-80
2022/11/03 03:06:28;;;;;;;7.85;2.58;;;;;;;16.82;56.62;98771.63;5299351;27;20069;-80
2022/11/03 03:09:01;;;;;;;7.75;2.37;;;;;;;17.04;56.29;98769.47;5299849;27;20057;-80
2022/11/03 03:11:37;;;;;;;7.30;2.47;;;;;;;17.83;53.22;98769.16;5299953;27;20105;-80
2022/11/03 03:14:06;;;;;;;4.78;2.20;;;;;;;17.35;54.55;98763.31;5299540;27;20049;-80
2022/11/03 03:16:37;;;;;;;5.93;2.50;;;;;;;17.43;54.07;98756.78;5299594;27;20110;-81
2022/11/03 03:19:22;;;;;;;7.72;2.35;;;;;;;17.29;54.71;98765.44;5280469;27;20058;-80
2022/11/03 03:21:52;;;;;;;8.18;2.37;;;;;;;17.03;54.71;98764.34;5280257;27;20475;-80
2022/11/03 03:25:05;;;;;;;6.47;2.58;;;;;;;17.57;52.70;98757.66;5280638;27;20064;-80
2022/11/03 03:27:33;;;;;;;9.88;2.80;;;;;;;17.05;53.14;98762.47;5282508;27;20157;-80
2022/11/03 03:30:04;;;;;;;6.70;2.50;;;;;;;16.49;54.09;98764.75;5299662;27;20069;-80
2022/11/03 03:32:35;;;;;;;8.88;2.72;;;;;;;16.32;55.38;98754.41;5280281;27;20050;-80
2022/11/03 03:35:06;;;;;;;8.45;2.70;;;;;;;17.17;52.79;98746.13;5279846;27;20053;-80
2022/11/03 03:37:39;;;;;;;7.60;2.53;;;;;;;16.81;53.47;98745.66;5280684;27;20076;-80
2022/11/03 03:40:10;;;;;;;7.70;2.53;;;;;;;16.44;54.36;98748.50;5299667;27;20075;-80
2022/11/03 03:42:38;;;;;;;13.55;2.90;;;;;;;16.69;54.07;98739.34;5280156;27;20400;-80
2022/11/03 03:45:07;;;;;;;7.68;2.47;;;;;;;17.21;52.17;98733.72;5299573;27;20045;-80
2022/11/03 03:47:34;;;;;;;8.52;2.67;;;;;;;17.27;52.90;98733.38;5279886;27;20065;-80
2022/11/03 03:50:01;;;;;;;6.00;2.60;;;;;;;17.21;53.16;98742.41;5279850;27;20053;-80
2022/11/03 03:52:28;;;;;;;9.85;2.55;;;;;;;17.77;51.58;98740.00;5299594;27;20045;-80
2022/11/03 03:54:55;;;;;;;7.15;2.50;;;;;;;17.39;51.61;98730.03;5279869;27;20045;-80
2022/11/03 03:57:23;;;;;;;7.60;2.40;;;;;;;17.05;52.28;98742.47;5280214;27;20061;-80
2022/11/03 03:59:50;;;;;;;7.62;2.40;;;;;;;16.58;53.42;98741.69;5280120;27;20192;-80
2022/11/03 04:02:17;;;;;;;7.22;2.67;;;;;;;16.17;54.27;98750.87;5279805;27;20106;-80
2022/11/03 04:04:44;;;;;;;6.75;2.30;;;;;;;15.99;54.82;98745.81;5299621;27;20050;-80
2022/11/03 04:09:56;;;;;;;7.60;2.12;;;;;;;15.43;56.79;98745.25;5299442;27;20529;-80
2022/11/03 04:23:28;;;;;;;7.22;1.98;;;;;;;13.64;63.38;98733.91;5299312;27;20064;-80
2022/11/03 04:25:56;;;;;;;7.12;2.47;;;;;;;13.68;63.39;98727.66;5299446;27;20045;-80
2022/11/03 04:28:24;;;;;;;12.63;2.53;;;;;;;13.49;63.40;98732.81;5299510;27;20625;-80
2022/11/03 04:30:54;;;;;;;5.93;2.05;;;;;;;15.11;57.96;98735.63;5279843;27;20063;-80
2022/11/03 04:33:25;;;;;;;9.85;2.30;;;;;;;14.61;59.43;98729.41;5280611;27;20049;-80
2022/11/03 04:35:52;;;;;;;8.93;2.20;;;;;;;15.26;57.28;98722.69;5299461;27;20412;-80
2022/11/03 04:38:22;;;;;;;8.30;2.20;;;;;;;14.82;58.30;98722.31;5299071;27;20062;-80
2022/11/03 04:40:53;;;;;;;5.78;2.28;;;;;;;15.45;56.50;98725.19;5299511;27;20541;-80
2022/11/03 04:43:23;;;;;;;10.88;2.45;;;;;;;15.89;54.84;98722.88;5299620;27;20048;-80
2022/11/03 04:45:50;;;;;;;8.13;2.35;;;;;;;16.04;53.95;98731.62;5279463;27;20060;-80
2022/11/03 04:48:23;;;;;;;7.40;2.25;;;;;;;15.59;54.75;98725.31;5299539;27;20057;-80
2022/11/03 04:51:01;;;;;;;6.93;2.40;;;;;;;15.61;54.89;98726.09;5279709;27;20060;-81
2022/11/03 04:53:31;;;;;;;7.12;2.20;;;;;;;15.00;56.41;98720.56;5299402;27;20053;-80
2022/11/03 04:55:59;;;;;;;8.02;2.28;;;;;;;15.64;55.10;98719.06;5299193;27;20060;-80
2022/11/03 04:58:34;;;;;;;8.73;2.20;;;;;;;16.18;53.00;98715.25;5280753;27;20085;-80
2022/11/03 05:01:02;;;;;;;6.78;2.25;;;;;;;15.82;52.13;98720.69;5299435;27;20477;-80
2022/11/03 05:03:33;;;;;;;7.97;2.33;;;;;;;14.69;55.64;98716.06;5299365;27;20388;-80
2022/11/03 05:06:15;;;;;;;6.22;2.30;;;;;;;14.68;56.04;98717.81;5298820;27;20045;-80
2022/11/03 05:08:45;;;;;;;6.70;2.55;;;;;;;14.79;56.54;98713.84;5299260;27;20122;-80
2022/11/03 05:11:20;;;;;;;13.23;2.80;;;;;;;14.90;56.36;98716.75;5279903;27;20060;-80
2022/11/03 05:13:47;;;;;;;6.53;2.25;;;;;;;15.22;55.95;98709.94;5279522;27;20060;-80
2022/11/03 05:16:15;;;;;;;8.15;2.40;;;;;;;15.24;55.39;98711.53;5299025;27;20094;-80
2022/11/03 05:18:43;;;;;;;9.82;2.85;;;;;;;15.38;55.28;98715.19;5279820;27;20061;-80
2022/11/03 05:21:16;;;;;;;8.65;2.60;;;;;;;15.72;53.83;98722.09;5279530;27;20125;-80
2022/11/03 05:23:47;;;;;;;8.77;2.90;;;;;;;15.31;54.73;98715.50;5299286;27;20328;-80
2022/11/03 05:26:19;;;;;;;6.25;2.42;;;;;;;14.98;54.91;98718.03;5298646;27;20060;-80
2022/11/03 05:28:51;;;;;;;7.85;2.65;;;;;;;15.11;54.40;98713.09;5279898;27;20061;-80
2022/11/03 05:31:26;;;;;;;6.45;2.30;;;;;;;14.95;55.14;98715.59;5299261;27;20412;-80
2022/11/03 05:33:57;;;;;;;7.22;2.42;;;;;;;15.21;54.63;98716.91;5279152;27;20109;-80
2022/11/03 05:36:25;;;;;;;5.22;1.98;;;;;;;14.96;55.93;98717.28;5299024;27;20049;-80
2022/11/03 05:38:59;;;;;;;11.40;2.55;;;;;;;14.53;57.90;98721.13;5299155;27;20061;-80
2022/11/03 05:41:27;;;;;;;6.90;2.22;;;;;;;15.01;56.79;98722.25;5279437;27;20064;-80
2022/11/03 05:44:25;;;;;;;5.53;2.00;;;;;;;15.55;54.45;98720.34;5299086;27;20064;-80
2022/11/03 05:46:52;;;;;;;6.15;2.28;;;;;;;14.62;57.08;98717.25;5287149;27;20316;-80
2022/11/03 05:49:20;;;;;;;8.90;2.20;;;;;;;14.56;57.51;98727.91;5299129;27;20383;-80
2022/11/03 05:51:47;;;;;;;7.43;2.00;;;;;;;15.16;55.72;98729.28;5299028;27;20072;-80
2022/11/03 05:54:34;;;;;;;7.90;2.30;;;;;;;15.11;55.43;98720.87;5298475;27;20064;-80
2022/11/03 05:57:00;;;;;;;9.88;2.20;;;;;;;14.83;56.33;98728.34;5298902;27;20336;-80
2022/11/03 05:59:28;;;;;;;6.07;2.30;;;;;;;15.38;54.50;98734.22;5298863;27;20340;-80
2022/11/03 06:01:58;;;;;;;6.20;1.92;;;;;;;15.58;53.84;98731.44;5279214;27;20058;-80
2022/11/03 06:04:32;;;;;;;5.60;2.03;;;;;;;15.32;53.85;98732.78;5279451;27;20052;-80
2022/11/03 06:07:07;;;;;;;6.10;2.05;;;;;;;15.04;54.11;98727.28;5279510;27;20547;-80
2022/11/03 06:09:34;;;;;;;5.82;2.00;;;;;;;14.99;54.78;98734.47;5298904;27;20325;-80
2022/11/03 06:12:04;;;;;;;6.22;1.87;;;;;;;15.16;55.45;98734.47;5280585;27;20076;-80
2022/11/03 06:14:32;;;;;;;4.53;1.87;;;;;;;15.39;55.15;98735.91;5280342;27;20053;-80
2022/11/03 06:17:04;;;;;;;7.05;2.22;;;;;;;15.65;54.30;98734.59;5280003;27;20064;-80
2022/11/03 06:19:42;;;;;;;4.85;1.98;;;;;;;15.50;55.46;98732.75;5299981;27;20057;-80
2022/11/03 06:22:27;;;;;;;9.07;2.47;;;;;;;15.35;56.99;98731.78;5280229;27;20121;-80
2022/11/03 06:24:57;;;;;;;8.32;2.15;;;;;;;15.56;57.30;98737.63;5300002;27;20063;-80
2022/11/03 06:27:25;;;;;;;5.57;2.17;;;;;;;16.74;52.77;98745.16;5300064;27;20056;-80
2022/11/03 06:29:59;;;;;;;5.32;1.90;;;;;;;17.04;51.41;98745.16;5280094;27;20058;-80
2022/11/03 06:32:27;;;;;;;7.68;1.75;;;;;;;17.31;50.48;98751.34;5300043;27;20062;-80
2022/11/03 06:34:57;;;;;;;5.80;2.12;;;;;;;17.51;50.18;98758.00;5280609;27;20071;-80
2022/11/03 06:37:31;;;;;;;5.55;2.45;;;;;;;18.02;49.11;98750.59;5299550;27;20048;-80
2022/11/03 06:40:09;;;;;;;6.10;2.10;;;;;;;18.31;48.68;98759.22;5299903;27;20065;-80
2022/11/03 06:42:39;;;;;;;7.15;2.37;;;;;;;18.75;48.04;98766.87;5300014;27;20057;-80
2022/11/03 06:45:21;;;;;;;7.82;2.72;;;;;;;19.73;45.18;98770.00;5299308;27;20439;-80
2022/11/03 06:47:49;;;;;;;5.95;2.25;;;;;;;20.60;42.49;98756.00;5280316;27;20044;-81
2022/11/03 06:50:28;;;;;;;8.68;3.33;;;;;;;21.41;40.95;98771.03;5280051;27;20061;-80
2022/11/03 06:52:56;;;;;;;7.93;2.80;;;;;;;21.26;41.04;98765.13;5299650;27;20061;-81
2022/11/03 06:55:24;;;;;;;7.70;2.45;;;;;;;21.51;40.52;98770.22;5299497;27;20052;-80
2022/11/03 06:58:14;;;;;;;8.00;3.00;;;;;;;21.34;40.76;98768.84;5299565;27;20396;-80
2022/11/03 07:00:41;;;;;;;8.50;2.60;;;;;;;20.75;42.61;98762.78;5299595;27;20103;-80
2022/11/03 07:03:32;;;;;;;6.62;2.70;;;;;;;21.11;41.73;98764.47;5299859;27;20112;-79
2022/11/03 07:06:23;;;;;;;9.90;3.10;;;;;;;21.71;40.81;98767.84;5299438;27;20396;-79
2022/11/03 07:08:55;;;;;;;16.58;6.80;;;;;;;22.29;40.39;98761.53;5294020;27;151356;-79
2022/11/03 07:11:25;;;;;;;14.75;4.75;;;;;;;23.33;38.48;98763.59;5299495;27;20102;-79
2022/11/03 07:13:55;;;;;;;9.38;3.00;;;;;;;23.76;37.29;98762.62;5280223;27;20125;-79
2022/11/03 07:16:31;;;;;;;8.82;2.90;;;;;;;23.92;37.74;98768.22;5299504;27;20064;-79
2022/11/03 07:18:59;;;;;;;9.45;2.95;;;;;;;23.99;36.67;98768.53;5299342;27;20091;-80
2022/11/03 07:21:36;;;;;;;8.65;2.33;;;;;;;24.74;36.16;98771.53;5299282;27;20058;-79
2022/11/03 07:24:32;;;;;;;6.30;2.47;;;;;;;24.91;35.30;98779.78;5299836;27;20062;-79
2022/11/03 07:27:11;;;;;;;9.07;2.20;;;;;;;25.24;35.54;98776.72;5279801;27;20053;-79
2022/11/03 07:29:39;;;;;;;6.50;2.20;;;;;;;25.63;34.23;98780.16;5299655;27;20060;-79
2022/11/03 07:32:20;;;;;;;8.63;2.17;;;;;;;26.21;33.42;98781.78;5280251;27;20080;-78
2022/11/03 07:34:48;;;;;;;11.43;2.60;;;;;;;26.53;32.37;98784.00;5280188;27;20379;-79
2022/11/03 07:37:19;;;;;;;11.77;3.78;;;;;;;26.44;31.73;98779.59;5280108;27;20052;-79
2022/11/03 07:39:47;;;;;;;9.60;2.95;;;;;;;25.43;32.88;98767.97;5299291;27;20367;-78
2022/11/03 07:42:17;;;;;;;11.35;3.62;;;;;;;23.89;36.30;98764.06;5299520;27;20641;-79
2022/11/03 07:44:45;;;;;;;7.93;3.05;;;;;;;25.07;34.86;98764.22;5299575;27;20079;-79
2022/11/03 07:47:24;;;;;;;6.18;1.95;;;;;;;24.80;35.42;98756.97;5299139;27;20049;-79
2022/11/03 07:49:51;;;;;;;7.78;1.95;;;;;;;23.67;35.40;98754.53;5299541;27;20059;-78
2022/11/03 07:52:21;;;;;;;7.95;2.10;;;;;;;22.64;36.02;98756.06;5299624;27;20464;-77
2022/11/03 07:54:50;;;;;;;4.47;1.83;;;;;;;22.75;35.61;98742.03;5298983;27;20054;-77
2022/11/03 07:57:25;;;;;;;5.85;1.87;;;;;;;21.09;39.85;98740.97;5280123;27;20056;-77
2022/11/03 08:00:03;;;;;;;6.60;1.90;;;;;;;21.80;37.75;98739.09;5279927;27;20412;-77
2022/11/03 08:02:36;;;;;;;4.37;1.58;;;;;;;21.04;39.47;98735.19;5299356;27;20065;-77
2022/11/03 08:05:04;;;;;;;5.55;1.70;;;;;;;21.12;36.52;98720.69;5280029;27;20075;-76
2022/11/03 08:07:31;;;;;;;4.55;1.70;;;;;;;20.80;37.71;98723.91;5299372;27;20049;-76
2022/11/03 08:09:58;;;;;;;5.10;1.65;;;;;;;20.75;37.58;98723.44;5299439;27;20127;-76
2022/11/03 08:12:25;;;;;;;5.57;1.60;;;;;;;20.93;37.77;98727.28;5280133;27;20061;-76
2022/11/03 08:14:52;;;;;;;3.80;1.35;;;;;;;20.86;37.54;98723.47;5298843;27;20105;-76
2022/11/03 08:17:19;;;;;;;5.75;2.10;;;;;;;21.64;35.63;98728.09;5299618;27;20098;-81
2022/11/03 08:19:45;;;;;;;4.12;1.70;;;;;;;20.58;36.59;98735.13;5299418;27;20049;-79
2022/11/03 08:22:12;;;;;;;6.00;2.00;;;;;;;20.03;38.87;98725.97;5299022;27;20057;-78
2022/11/03 08:24:39;;;;;;;5.20;1.40;;;;;;;20.51;38.48;98726.03;5299500;27;20057;-78
2022/11/03 08:27:06;;;;;;;4.82;1.48;;;;;;;20.23;37.78;98719.31;5299438;27;20149;-78
2022/11/03 08:29:33;;;;;;;4.95;1.67;;;;;;;19.67;39.56;98723.28;5298950;27;20053;-78
2022/11/03 08:32:00;;;;;;;6.53;2.28;;;;;;;18.39;41.81;98722.97;5299255;27;20126;-78
2022/11/03 08:34:27;;;;;;;8.40;2.50;;;;;;;19.36;40.90;98717.53;5279814;27;20060;-78
2022/11/03 08:36:54;;;;;;;7.60;2.67;;;;;;;19.18;42.82;98710.91;5299371;27;20052;-78
2022/11/03 08:39:21;;;;;;;8.60;3.08;;;;;;;19.80;41.65;98719.72;5299285;27;20060;-79
2022/11/03 08:41:47;;;;;;;8.70;2.92;;;;;;;19.82;41.22;98709.97;5299628;27;20061;-78
2022/11/03 08:44:14;;;;;;;7.37;2.55;;;;;;;19.53;42.24;98703.28;5299218;27;20480;-78
2022/11/03 08:46:41;;;;;;;6.62;2.35;;;;;;;20.09;41.39;98701.94;5299446;27;20049;-81
2022/11/03 08:49:08;;;;;;;7.12;2.75;;;;;;;20.70;40.21;98705.41;5299248;27;20042;-80
2022/11/03 08:51:35;;;;;;;8.98;3.10;;;;;;;20.40;39.96;98699.75;5299044;27;20517;-80
2022/11/03 08:54:09;;;;;;;9.07;3.30;;;;;;;19.98;41.65;98706.25;5299279;27;20053;-80
2022/11/03 08:56:36;;;;;;;8.93;3.08;;;;;;;19.30;43.70;98710.06;5298939;27;20056;-80
2022/11/03 08:59:03;;;;;;;8.63;3.20;;;;;;;19.70;42.95;98697.75;5299225;27;20486;-80
2022/11/03 09:01:30;;;;;;;10.63;3.75;;;;;;;19.46;44.33;98696.78;5299372;27;20118;-80
2022/11/03 09:03:57;;;;;;;12.18;3.37;;;;;;;18.87;46.00;98696.41;5298870;27;20451;-80
2022/11/03 09:06:24;;;;;;;9.18;3.50;;;;;;;19.00;47.09;98686.81;5298942;27;20056;-81
2022/11/03 09:08:51;;;;;;;9.80;3.55;;;;;;;19.91;43.98;98690.16;5299211;27;20083;-81
2022/11/03 09:11:37;;;;;;;8.87;3.03;;;;;;;20.17;43.85;98690.91;5298546;27;20077;-81
2022/11/03 09:14:04;;;;;;;10.15;3.00;;;;;;;19.92;44.51;98695.28;5299099;27;20061;-80
2022/11/03 09:16:31;;;;;;;12.98;4.18;;;;;;;19.90;44.59;98693.75;5299044;27;20049;-80
2022/11/03 09:18:58;;;;;;;9.82;3.87;;;;;;;20.48;43.49;98689.56;5298678;27;20042;-80
2022/11/03 09:21:25;;;;;;;10.57;3.55;;;;;;;19.61;46.60;98685.28;5279792;27;20076;-80
2022/11/03 09:23:52;;;;;;;10.35;3.78;;;;;;;20.43;44.71;98682.06;5299199;27;20057;-80
2022/11/03 09:26:19;;;;;;;9.85;3.35;;;;;;;21.19;42.85;98680.75;5298610;27;20117;-80
2022/11/03 09:28:46;;;;;;;7.62;2.40;;;;;;;21.17;42.58;98685.28;5299071;27;20052;-80
2022/11/03 09:31:12;;;;;;;10.95;3.83;;;;;;;20.96;42.34;98684.28;5299096;27;20061;-80
2022/11/03 09:33:39;;;;;;;10.23;3.83;;;;;;;20.07;45.53;98671.56;5298544;27;20400;-80
2022/11/03 09:36:07;;;;;;;11.82;3.87;;;;;;;21.74;42.79;98680.94;5298882;27;20057;-80
2022/11/03 09:38:34;;;;;;;9.35;4.32;;;;;;;22.81;39.74;98684.50;5298643;27;20052;-80
2022/11/03 09:41:02;;;;;;;10.80;4.10;;;;;;;21.91;41.37;98683.09;5298998;27;20122;-80
2022/11/03 09:43:44;;;;;;;12.77;5.50;;;;;;;21.92;41.37;98677.69;5282278;27;20170;-81
2022/11/03 09:46:12;;;;;;;10.57;3.90;;;;;;;22.27;41.46;98673.25;5280105;27;20068;-80
2022/11/03 09:48:39;;;;;;;9.80;4.12;;;;;;;22.01;41.81;98663.00;5280495;27;20053;-81
2022/11/03 09:51:08;;;;;;;10.68;4.05;;;;;;;22.40;40.29;98650.25;5299856;27;20076;-82
2022/11/03 09:53:35;;;;;;;13.45;7.18;;;;;;;21.55;42.39;98653.47;5280072;27;20057;-80
2022/11/03 09:56:02;;;;;;;10.07;3.80;;;;;;;22.63;41.05;98646.56;5300029;27;20053;-79
2022/11/03 09:58:33;;;;;;;10.65;3.65;;;;;;;22.44;40.95;98644.63;5280379;27;20053;-79
2022/11/03 10:01:00;;;;;;;9.32;3.60;;;;;;;22.74;40.05;98630.72;5299635;27;20056;-80
2022/11/03 10:03:27;;;;;;;9.60;3.62;;;;;;;21.80;41.80;98633.16;5300012;27;20061;-80
2022/11/03 10:05:55;;;;;;;8.80;2.97;;;;;;;21.50;42.26;98625.94;5299850;27;20053;-80
2022/11/03 10:08:27;;;;;;;11.35;3.80;;;;;;;21.63;42.22;98614.34;5280178;27;20105;-80
2022/11/03 10:10:55;;;;;;;12.13;4.62;;;;;;;21.18;43.31;98612.66;5300040;27;20057;-80
2022/11/03 10:13:46;;;;;;;11.18;4.53;;;;;;;20.79;44.90;98604.22;5280498;27;20064;-80
2022/11/03 10:16:18;;;;;;;11.60;4.95;;;;;;;20.47;45.10;98594.38;5299135;27;20049;-81
2022/11/03 10:18:45;;;;;;;15.48;5.68;;;;;;;21.11;43.68;98590.44;5280485;27;20064;-81
2022/11/03 10:21:30;;;;;;;16.60;6.55;;;;;;;20.73;46.69;98589.78;5299522;27;20061;-80
2022/11/03 10:23:57;;;;;;;15.25;6.40;;;;;;;20.65;48.21;98583.47;5300007;27;20118;-81
2022/11/03 10:26:23;;;;;;;18.40;6.30;;;;;;;21.30;46.48;98585.47;5299789;27;20049;-80
2022/11/03 10:29:03;;;;;;;18.05;6.97;;;;;;;20.87;47.58;98574.81;5280128;27;20049;-82
2022/11/03 10:31:34;;;;;;;16.42;7.82;;;;;;;20.77;48.17;98574.69;5299996;27;20116;-81
2022/11/03 10:34:01;;;;;;;17.77;8.73;;;;;;;20.70;48.39;98562.97;5299920;27;20061;-82
2022/11/03 10:36:30;;;;;;;16.12;5.82;;;;;;;20.76;48.52;98562.53;5299360;27;20467;-82
2022/11/03 10:38:58;;;;;;;13.18;5.43;;;;;;;20.96;44.93;98561.00;5280613;27;20060;-81
2022/11/03 10:41:30;;;;;;;15.60;6.35;;;;;;;20.60;47.88;98562.00;5280336;27;20416;-82
2022/11/03 10:44:01;;;;;;;17.42;6.43;;;;;;;21.56;44.77;98557.16;5280125;27;20396;-82
2022/11/03 10:46:28;;;;;;;15.40;7.22;;;;;;;21.58;44.46;98548.19;5299341;27;20068;-81
2022/11/03 10:49:17;;;;;;;18.10;8.27;;;;;;;21.30;46.27;98549.56;5283257;27;20567;-80
2022/11/03 10:51:53;;;;;;;18.25;7.35;;;;;;;21.41;46.82;98553.97;5299912;27;20062;-80
2022/11/03 10:54:22;;;;;;;18.87;8.27;;;;;;;20.62;48.15;98539.13;5299544;27;20060;-80
2022/11/03 10:56:50;;;;;;;16.65;7.18;;;;;;;19.30;53.53;98534.78;5299511;27;20049;-81
2022/11/03 10:59:19;;;;;;;17.60;8.13;;;;;;;19.70;53.51;98526.75;5299559;27;20058;-80
2022/11/03 11:01:46;;;;;;;17.95;8.57;;;;;;;19.98;51.96;98528.16;5280370;27;20448;-80
2022/11/03 11:04:18;;;;;;;22.50;10.05;;;;;;;20.34;51.70;98527.25;5299170;27;20124;-80
2022/11/03 11:06:46;;;;;;;21.37;9.07;;;;;;;20.51;51.18;98519.78;5280401;27;20057;-80
2022/11/03 11:09:26;;;;;;;21.48;10.40;;;;;;;20.89;50.60;98526.53;5299609;27;20690;-80
2022/11/03 11:12:03;;;;;;;20.15;10.20;;;;;;;21.16;49.79;98514.81;5299298;27;20199;-81
2022/11/03 11:14:35;;;;;;;;;;;;;;;21.33;50.40;98525.69;5280395;27;20381;-81
2022/11/03 11:17:02;;;;;;;20.48;10.27;;;;;;;20.56;50.20;98516.84;5299444;27;19984;-81
2022/11/03 11:19:30;;;;;;;20.15;9.88;;;;;;;20.98;50.59;98517.13;5280309;27;20362;-80
2022/11/03 11:21:58;;;;;;;20.80;10.20;;;;;;;21.40;49.78;98510.31;5280341;27;20080;-81
2022/11/03 11:24:44;;;;;;;19.33;9.52;;;;;;;21.10;50.26;98503.03;5279532;27;20065;-80
2022/11/03 11:27:33;;;;;;;20.40;9.95;;;;;;;21.52;50.18;98498.81;5299721;27;20092;-80
2022/11/03 11:30:07;;;;;;;22.20;11.80;;;;;;;21.06;50.43;98497.19;5299527;27;20149;-80
2022/11/03 11:32:43;;;;;;;22.92;11.18;;;;;;;20.97;51.44;98489.22;5279954;27;20084;-81
2022/11/03 11:35:22;;;;;;;21.07;11.37;;;;;;;19.91;53.72;98483.28;5299399;27;20117;-81
2022/11/03 11:37:49;;;;;;;22.40;11.63;;;;;;;19.37;56.97;98483.69;5299503;27;20045;-82
2022/11/03 11:40:25;;;;;;;19.12;9.85;;;;;;;20.34;53.23;98483.53;5299596;27;20469;-81
2022/11/03 11:43:01;;;;;;;22.25;10.05;;;;;;;19.51;56.04;98475.69;5299663;27;20069;-81
2022/11/03 11:46:05;;;;;;;24.00;10.10;;;;;;;19.14;59.01;98474.88;5299046;27;20065;-82
2022/11/03 11:48:32;;;;;;;24.92;12.10;;;;;;;19.53;56.95;98465.09;5299603;27;20395;-81
2022/11/03 11:51:00;;;;;;;21.60;10.60;;;;;;;19.60;58.23;98463.75;5299662;27;20049;-81
2022/11/03 11:53:31;;;;;;;26.77;13.25;;;;;;;19.52;57.30;98455.56;5299162;27;20073;-81
2022/11/03 11:56:00;;;;;;;24.27;11.98;;;;;;;19.78;57.22;98456.31;5299474;27;20071;-81
2022/11/03 11:58:42;;;;;;;22.45;10.27;;;;;;;18.25;62.36;98450.56;5280243;27;20395;-80
2022/11/03 12:01:29;;;;;;;26.75;13.45;;;;;;;19.33;58.27;98451.66;5279865;27;20060;-81
2022/11/03 12:03:58;;;;;;;30.48;13.93;;;;;;;19.27;58.23;98446.91;5280804;27;20065;-81
2022/11/03 12:06:33;;;;;;;25.55;11.57;;;;;;;18.93;59.62;98437.16;5299044;27;20077;-81